• Join FlightAware (Why Join?)
  • Login
  • US Flag 
05:58PM EDT


 

Airport Tracker/Info


-or-


 

Live Flight TrackerFlight Track Log ✈ TAM3119 ✈ 24-May-2013 ✈ SBSP / CGH - SBNF / NVT

Flight Track Log - Related Links

Times and Time Zones

All times are in EDT time to prevent confusion due to time zone crossing. See the TAM3119 flight status page for this flight to view local times or setup timezone preferences in your user account.

Time Position Orientation Groundspeed Altitude Reporting Facility
EDT Latitude Longitude Course Direction KTS MPH feet Rate Location/Type
06:13AM -25.0805 -47.5321 209° Southwest  Level Estimated
06:14AM -25.1385 -47.5676 209° Southwest  Level Estimated
06:15AM -25.1966 -47.6032 209° Southwest  Level Estimated
06:16AM -25.2546 -47.6387 209° Southwest  Level Estimated
06:17AM -25.3126 -47.6743 209° Southwest  Level Estimated
06:18AM -25.3706 -47.7100 209° Southwest  Level Estimated
06:19AM -25.4286 -47.7456 209° Southwest  Level Estimated
06:20AM -25.4866 -47.7813 209° Southwest  Level Estimated
06:21AM -25.5446 -47.8171 209° Southwest  Level Estimated
06:22AM -25.6026 -47.8528 209° Southwest  Level Estimated
06:23AM -25.6606 -47.8886 209° Southwest  Level Estimated
06:24AM -25.7185 -47.9245 209° Southwest  Level Estimated
06:25AM -25.7765 -47.9603 209° Southwest  Level Estimated
06:26AM -25.8344 -47.9963 209° Southwest  Level Estimated
06:27AM -25.8924 -48.0322 209° Southwest  Level Estimated
06:28AM -25.9503 -48.0682 209° Southwest  Level Estimated
06:29AM -26.0082 -48.1042 209° Southwest  Level Estimated
06:30AM -26.0661 -48.1402 209° Southwest  Level Estimated
06:31AM -26.1240 -48.1763 209° Southwest  Level Estimated
06:32AM -26.1819 -48.2124 209° Southwest  Level Estimated
06:33AM -26.2398 -48.2486 209° Southwest  Level Estimated
06:34AM -26.2976 -48.2848 209° Southwest  Level Estimated
06:35AM -26.3555 -48.3210 209° Southwest  Level Estimated
06:36AM -26.4134 -48.3573 209° Southwest  Level Estimated
06:37AM -26.4712 -48.3936 209° Southwest  Level Estimated
06:38AM -26.5290 -48.4299 209° Southwest  Level Estimated
06:39AM -26.5868 -48.4663 209° Southwest  Level Estimated
06:40AM -26.6447 -48.5027 209° Southwest  Level Estimated
06:41AM -26.7025 -48.5392 209° Southwest  Level Estimated
06:42AM -26.7603 -48.5757 209° Southwest  Level Estimated
06:43AM -26.8181 -48.6122 209° Southwest  Level Estimated
06:44AM -26.8759 -48.6488 209° Southwest  Level Estimated
06:45AM -26.8800 -48.6514 209° Southwest  Level Estimated
06:46AM -26.8800 -48.6514 North  Level Estimated
06:47AM -26.8800 -48.6514 North  Level Estimated